sensor_id;sensor_type;location;lat;lon;timestamp;pressure;altitude;pressure_sealevel;temperature;humidity
75867;BME280;64513;56.258;43.980;2023-03-13T00:03:49;98022.95;;;7.48;66.48
75867;BME280;64513;56.258;43.980;2023-03-13T00:06:16;98029.10;;;7.43;66.24
75867;BME280;64513;56.258;43.980;2023-03-13T00:08:40;98034.66;;;7.42;66.27
75867;BME280;64513;56.258;43.980;2023-03-13T00:11:08;98026.61;;;7.38;66.08
75867;BME280;64513;56.258;43.980;2023-03-13T00:13:33;98030.89;;;7.34;66.03
75867;BME280;64513;56.258;43.980;2023-03-13T00:16:17;98033.04;;;7.32;65.93
75867;BME280;64513;56.258;43.980;2023-03-13T00:18:44;98041.22;;;7.30;65.84
75867;BME280;64513;56.258;43.980;2023-03-13T00:21:09;98045.51;;;7.26;65.78
75867;BME280;64513;56.258;43.980;2023-03-13T00:23:34;98027.72;;;7.23;65.74
75867;BME280;64513;56.258;43.980;2023-03-13T00:26:02;98041.16;;;7.22;65.82
75867;BME280;64513;56.258;43.980;2023-03-13T00:28:29;98055.66;;;7.19;65.78
75867;BME280;64513;56.258;43.980;2023-03-13T00:33:41;98083.12;;;7.13;65.64
75867;BME280;64513;56.258;43.980;2023-03-13T00:36:08;98085.26;;;7.11;65.67
75867;BME280;64513;56.258;43.980;2023-03-13T00:38:34;98084.31;;;7.07;65.70
75867;BME280;64513;56.258;43.980;2023-03-13T00:43:25;98094.63;;;7.03;65.78
75867;BME280;64513;56.258;43.980;2023-03-13T00:45:49;98106.50;;;7.01;65.72
75867;BME280;64513;56.258;43.980;2023-03-13T00:48:13;98101.82;;;6.98;65.76
75867;BME280;64513;56.258;43.980;2023-03-13T00:50:37;98105.52;;;6.97;65.81
75867;BME280;64513;56.258;43.980;2023-03-13T00:53:02;98111.35;;;6.94;65.81
75867;BME280;64513;56.258;43.980;2023-03-13T00:55:26;98113.52;;;6.92;65.75
75867;BME280;64513;56.258;43.980;2023-03-13T00:57:50;98108.55;;;6.90;65.77
75867;BME280;64513;56.258;43.980;2023-03-13T01:02:59;98124.61;;;6.89;65.71
75867;BME280;64513;56.258;43.980;2023-03-13T01:05:23;98127.81;;;6.86;65.74
75867;BME280;64513;56.258;43.980;2023-03-13T01:07:47;98129.16;;;6.83;65.74
75867;BME280;64513;56.258;43.980;2023-03-13T01:10:11;98132.08;;;6.82;65.77
75867;BME280;64513;56.258;43.980;2023-03-13T01:12:35;98142.09;;;6.80;65.90
75867;BME280;64513;56.258;43.980;2023-03-13T01:14:59;98146.86;;;6.78;65.94
75867;BME280;64513;56.258;43.980;2023-03-13T01:17:25;98139.30;;;6.76;65.95
75867;BME280;64513;56.258;43.980;2023-03-13T01:19:50;98146.39;;;6.76;65.96
75867;BME280;64513;56.258;43.980;2023-03-13T01:22:14;98155.63;;;6.73;65.99
75867;BME280;64513;56.258;43.980;2023-03-13T01:24:38;98152.22;;;6.73;66.01
75867;BME280;64513;56.258;43.980;2023-03-13T01:27:03;98159.61;;;6.71;66.05
75867;BME280;64513;56.258;43.980;2023-03-13T01:29:27;98153.58;;;6.70;66.03
75867;BME280;64513;56.258;43.980;2023-03-13T01:31:51;98153.86;;;6.68;66.06
75867;BME280;64513;56.258;43.980;2023-03-13T01:34:15;98163.09;;;6.66;66.05
75867;BME280;64513;56.258;43.980;2023-03-13T01:36:39;98162.31;;;6.65;66.06
75867;BME280;64513;56.258;43.980;2023-03-13T01:39:04;98169.70;;;6.63;65.95
75867;BME280;64513;56.258;43.980;2023-03-13T01:41:30;98173.39;;;6.62;65.89
75867;BME280;64513;56.258;43.980;2023-03-13T01:43:54;98177.09;;;6.61;65.95
75867;BME280;64513;56.258;43.980;2023-03-13T01:46:38;98184.22;;;6.61;65.87
75867;BME280;64513;56.258;43.980;2023-03-13T01:49:05;98179.25;;;6.59;65.87
75867;BME280;64513;56.258;43.980;2023-03-13T01:54:18;98180.88;;;6.55;65.63
75867;BME280;64513;56.258;43.980;2023-03-13T01:56:46;98204.02;;;6.53;65.44
75867;BME280;64513;56.258;43.980;2023-03-13T01:59:12;98198.27;;;6.51;65.38
75867;BME280;64513;56.258;43.980;2023-03-13T02:01:37;98205.66;;;6.49;65.25
75867;BME280;64513;56.258;43.980;2023-03-13T02:04:01;98209.34;;;6.48;65.33
75867;BME280;64513;56.258;43.980;2023-03-13T02:06:28;98210.41;;;6.47;65.16
75867;BME280;64513;56.258;43.980;2023-03-13T02:08:55;98215.20;;;6.45;64.71
75867;BME280;64513;56.258;43.980;2023-03-13T02:14:26;98218.39;;;6.42;64.53
75867;BME280;64513;56.258;43.980;2023-03-13T02:16:52;98214.77;;;6.38;64.45
75867;BME280;64513;56.258;43.980;2023-03-13T02:26:20;98227.17;;;6.32;64.63
75867;BME280;64513;56.258;43.980;2023-03-13T02:30:59;98225.99;;;6.25;64.38
75867;BME280;64513;56.258;43.980;2023-03-13T02:33:27;98255.93;;;6.24;64.38
75867;BME280;64513;56.258;43.980;2023-03-13T02:35:52;98239.68;;;6.22;64.37
75867;BME280;64513;56.258;43.980;2023-03-13T02:38:20;98253.36;;;6.19;64.20
75867;BME280;64513;56.258;43.980;2023-03-13T02:40:46;98242.87;;;6.19;64.38
75867;BME280;64513;56.258;43.980;2023-03-13T02:43:32;98249.17;;;6.18;64.31
75867;BME280;64513;56.258;43.980;2023-03-13T02:46:18;98257.33;;;6.16;64.21
75867;BME280;64513;56.258;43.980;2023-03-13T02:51:47;98267.64;;;6.13;64.16
75867;BME280;64513;56.258;43.980;2023-03-13T02:54:15;98273.17;;;6.11;64.25
75867;BME280;64513;56.258;43.980;2023-03-13T02:56:41;98278.70;;;6.10;64.36
75867;BME280;64513;56.258;43.980;2023-03-13T02:59:06;98285.79;;;6.09;64.41
75867;BME280;64513;56.258;43.980;2023-03-13T03:01:30;98277.41;;;6.07;64.49
75867;BME280;64513;56.258;43.980;2023-03-13T03:03:54;98276.63;;;6.07;64.50
75867;BME280;64513;56.258;43.980;2023-03-13T03:06:19;98282.66;;;6.07;64.49
75867;BME280;64513;56.258;43.980;2023-03-13T03:08:43;98281.88;;;6.07;64.52
75867;BME280;64513;56.258;43.980;2023-03-13T03:11:07;98284.00;;;6.05;64.56
75867;BME280;64513;56.258;43.980;2023-03-13T03:13:31;98290.81;;;6.06;64.57
75867;BME280;64513;56.258;43.980;2023-03-13T03:15:55;98299.75;;;6.05;64.54
75867;BME280;64513;56.258;43.980;2023-03-13T03:18:20;98297.91;;;6.05;64.58
75867;BME280;64513;56.258;43.980;2023-03-13T03:20:44;98304.99;;;6.05;64.63
75867;BME280;64513;56.258;43.980;2023-03-13T03:23:08;98310.24;;;6.05;64.63
75867;BME280;64513;56.258;43.980;2023-03-13T03:25:32;98313.92;;;6.04;64.68
75867;BME280;64513;56.258;43.980;2023-03-13T03:27:56;98322.30;;;6.06;64.75
75867;BME280;64513;56.258;43.980;2023-03-13T03:30:21;98325.20;;;6.04;64.89
75867;BME280;64513;56.258;43.980;2023-03-13T03:32:45;98313.92;;;6.04;64.98
75867;BME280;64513;56.258;43.980;2023-03-13T03:35:09;98325.20;;;6.04;65.04
75867;BME280;64513;56.258;43.980;2023-03-13T03:37:33;98325.20;;;6.04;65.05
75867;BME280;64513;56.258;43.980;2023-03-13T03:39:58;98318.11;;;6.05;65.05
75867;BME280;64513;56.258;43.980;2023-03-13T03:42:22;98329.67;;;6.04;65.11
75867;BME280;64513;56.258;43.980;2023-03-13T03:44:46;98334.13;;;6.03;65.08
75867;BME280;64513;56.258;43.980;2023-03-13T03:47:10;98332.30;;;6.04;65.02
75867;BME280;64513;56.258;43.980;2023-03-13T03:49:34;98347.77;;;6.05;65.08
75867;BME280;64513;56.258;43.980;2023-03-13T03:51:58;98345.14;;;6.05;65.12
75867;BME280;64513;56.258;43.980;2023-03-13T03:54:22;98348.55;;;6.06;64.98
75867;BME280;64513;56.258;43.980;2023-03-13T03:56:47;98353.02;;;6.05;64.89
75867;BME280;64513;56.258;43.980;2023-03-13T03:59:11;98357.20;;;6.06;64.79
75867;BME280;64513;56.258;43.980;2023-03-13T04:01:35;98342.23;;;6.07;64.74
75867;BME280;64513;56.258;43.980;2023-03-13T04:03:59;98356.14;;;6.07;64.78
75867;BME280;64513;56.258;43.980;2023-03-13T04:06:23;98364.52;;;6.09;64.64
75867;BME280;64513;56.258;43.980;2023-03-13T04:08:47;98366.86;;;6.11;64.51
75867;BME280;64513;56.258;43.980;2023-03-13T04:11:11;98375.24;;;6.13;64.26
75867;BME280;64513;56.258;43.980;2023-03-13T04:13:35;98387.50;;;6.17;64.07
75867;BME280;64513;56.258;43.980;2023-03-13T04:16:04;98385.37;;;6.19;64.09
75867;BME280;64513;56.258;43.980;2023-03-13T04:18:25;98395.55;;;6.26;63.95
75867;BME280;64513;56.258;43.980;2023-03-13T04:20:49;98401.17;;;6.38;63.63
75867;BME280;64513;56.258;43.980;2023-03-13T04:23:13;98410.14;;;6.56;63.20
75867;BME280;64513;56.258;43.980;2023-03-13T04:25:37;98417.18;;;6.60;63.04
75867;BME280;64513;56.258;43.980;2023-03-13T04:28:02;98419.50;;;6.62;62.96
75867;BME280;64513;56.258;43.980;2023-03-13T04:30:26;98421.56;;;6.65;62.78
75867;BME280;64513;56.258;43.980;2023-03-13T04:32:50;98434.36;;;6.72;62.46
75867;BME280;64513;56.258;43.980;2023-03-13T04:35:15;98447.30;;;6.87;61.95
75867;BME280;64513;56.258;43.980;2023-03-13T04:37:39;98449.48;;;6.80;62.07
75867;BME280;64513;56.258;43.980;2023-03-13T04:40:04;98453.67;;;6.81;61.96
75867;BME280;64513;56.258;43.980;2023-03-13T04:42:28;98463.91;;;6.82;61.76
75867;BME280;64513;56.258;43.980;2023-03-13T04:44:52;98458.37;;;6.84;61.44
75867;BME280;64513;56.258;43.980;2023-03-13T04:47:16;98469.02;;;7.11;60.74
75867;BME280;64513;56.258;43.980;2023-03-13T04:49:41;98483.38;;;7.37;60.10
75867;BME280;64513;56.258;43.980;2023-03-13T04:52:06;98467.69;;;7.65;60.21
75867;BME280;64513;56.258;43.980;2023-03-13T04:54:30;98489.38;;;7.89;60.30
75867;BME280;64513;56.258;43.980;2023-03-13T04:56:54;98480.47;;;8.18;60.28
75867;BME280;64513;56.258;43.980;2023-03-13T04:59:18;98493.97;;;8.43;60.28
75867;BME280;64513;56.258;43.980;2023-03-13T05:01:43;98499.71;;;8.73;60.58
75867;BME280;64513;56.258;43.980;2023-03-13T05:04:07;98507.77;;;9.04;60.62
75867;BME280;64513;56.258;43.980;2023-03-13T05:06:32;98498.89;;;9.36;60.88
75867;BME280;64513;56.258;43.980;2023-03-13T05:08:56;98505.02;;;9.67;60.88
75867;BME280;64513;56.258;43.980;2023-03-13T05:11:21;98516.10;;;10.00;60.52
75867;BME280;64513;56.258;43.980;2023-03-13T05:13:45;98522.07;;;10.37;61.33
75867;BME280;64513;56.258;43.980;2023-03-13T05:16:09;98517.36;;;10.73;60.99
75867;BME280;64513;56.258;43.980;2023-03-13T05:18:34;98517.91;;;11.10;60.47
75867;BME280;64513;56.258;43.980;2023-03-13T05:20:59;98513.59;;;11.48;60.04
75867;BME280;64513;56.258;43.980;2023-03-13T05:23:23;98519.17;;;11.90;59.71
75867;BME280;64513;56.258;43.980;2023-03-13T05:25:47;98521.55;;;12.29;58.70
75867;BME280;64513;56.258;43.980;2023-03-13T05:28:12;98525.45;;;12.70;58.71
75867;BME280;64513;56.258;43.980;2023-03-13T05:30:36;98530.81;;;13.12;57.81
75867;BME280;64513;56.258;43.980;2023-03-13T05:33:00;98532.41;;;13.54;57.26
75867;BME280;64513;56.258;43.980;2023-03-13T05:35:24;98542.98;;;13.96;56.42
75867;BME280;64513;56.258;43.980;2023-03-13T05:37:49;98556.59;;;14.39;55.88
75867;BME280;64513;56.258;43.980;2023-03-13T05:40:13;98552.66;;;14.82;55.05
75867;BME280;64513;56.258;43.980;2023-03-13T05:42:37;98541.42;;;15.25;54.54
75867;BME280;64513;56.258;43.980;2023-03-13T05:45:01;98532.77;;;15.68;55.54
75867;BME280;64513;56.258;43.980;2023-03-13T05:47:26;98532.78;;;16.12;55.11
75867;BME280;64513;56.258;43.980;2023-03-13T05:49:50;98541.58;;;16.60;53.69
